createdAt,value
2023-03-02T00:01:37.756Z,71.40
2023-03-02T00:06:42.699Z,71.40
2023-03-02T00:11:46.591Z,71.50
2023-03-02T00:16:50.018Z,71.40
2023-03-02T00:21:54.788Z,71.40
2023-03-02T00:26:58.612Z,71.40
2023-03-02T00:32:03.821Z,71.40
2023-03-02T00:37:08.657Z,71.40
2023-03-02T00:42:12.233Z,71.40
2023-03-02T00:47:15.966Z,71.40
2023-03-02T00:52:20.791Z,71.40
2023-03-02T00:57:24.514Z,71.40
2023-03-02T01:02:28.577Z,71.40
2023-03-02T01:07:33.708Z,71.40
2023-03-02T01:12:37.767Z,71.40
2023-03-02T01:17:42.920Z,71.40
2023-03-02T01:22:47.728Z,71.40
2023-03-02T01:27:51.186Z,71.40
2023-03-02T01:32:54.602Z,71.30
2023-03-02T01:37:59.350Z,71.40
2023-03-02T01:43:04.743Z,71.40
2023-03-02T01:48:10.779Z,71.40
2023-03-02T01:53:17.404Z,71.40
2023-03-02T01:58:21.968Z,71.30
2023-03-02T02:03:29.171Z,71.30
2023-03-02T02:08:34.016Z,71.40
2023-03-02T02:13:37.635Z,71.30
2023-03-02T02:18:43.095Z,71.40
2023-03-02T02:24:05.017Z,71.40
2023-03-02T02:29:15.037Z,71.40
2023-03-02T02:34:24.460Z,71.40
2023-03-02T02:39:34.103Z,71.40
2023-03-02T02:44:39.238Z,71.30
2023-03-02T02:49:43.681Z,71.30
2023-03-02T02:54:52.353Z,71.30
2023-03-02T03:00:01.824Z,71.30
2023-03-02T03:05:14.105Z,71.40
2023-03-02T03:10:23.033Z,71.30
2023-03-02T03:15:27.974Z,71.30
2023-03-02T03:20:31.499Z,71.30
2023-03-02T03:25:35.110Z,71.30
2023-03-02T03:30:41.186Z,71.40
2023-03-02T03:35:45.170Z,71.30
2023-03-02T03:40:48.691Z,71.20
2023-03-02T03:45:53.674Z,71.20
2023-03-02T03:50:57.248Z,71.20
2023-03-02T03:56:01.145Z,71.30
2023-03-02T04:01:06.638Z,71.20
2023-03-02T04:06:18.844Z,71.20
2023-03-02T04:11:23.599Z,71.20
2023-03-02T04:16:28.891Z,71.10
2023-03-02T04:21:32.883Z,71.30
2023-03-02T04:26:38.667Z,71.30
2023-03-02T04:31:43.607Z,71.20
2023-03-02T04:36:48.471Z,71.20
2023-03-02T04:41:53.446Z,71.10
2023-03-02T04:46:58.340Z,71.20
2023-03-02T04:52:01.826Z,71.30
2023-03-02T04:57:05.529Z,71.20
2023-03-02T05:02:10.508Z,71.10
2023-03-02T05:07:13.972Z,71.90
2023-03-02T05:12:19.162Z,71.10
2023-03-02T05:17:24.023Z,71.20
2023-03-02T05:22:27.608Z,71.20
2023-03-02T05:27:31.026Z,71.20
2023-03-02T05:32:35.869Z,71.10
2023-03-02T05:37:41.615Z,71.10
2023-03-02T05:42:45.566Z,71.10
2023-03-02T05:47:50.671Z,71.20
2023-03-02T05:52:54.155Z,71.10
2023-03-02T05:57:58.154Z,71.10
2023-03-02T06:03:03.044Z,71.10
2023-03-02T06:08:07.186Z,71.10
2023-03-02T06:13:12.884Z,71.10
2023-03-02T06:18:17.728Z,71.20
2023-03-02T06:23:21.120Z,71.00
2023-03-02T06:28:25.098Z,71.10
2023-03-02T06:33:30.555Z,71.10
2023-03-02T06:38:33.952Z,71.10
2023-03-02T06:43:37.343Z,71.10
2023-03-02T06:48:42.182Z,71.10
2023-03-02T06:53:45.876Z,71.10
2023-03-02T06:58:49.594Z,71.00
2023-03-02T07:03:54.365Z,71.10
2023-03-02T07:08:57.814Z,71.00
2023-03-02T07:14:01.983Z,71.10
2023-03-02T07:19:06.925Z,71.00
2023-03-02T07:24:10.440Z,71.00
2023-03-02T07:29:13.859Z,71.10
2023-03-02T07:34:18.590Z,71.00
2023-03-02T07:39:22.610Z,71.00
2023-03-02T07:44:26.166Z,71.00
2023-03-02T07:49:30.935Z,70.90
2023-03-02T07:54:34.402Z,70.90
2023-03-02T07:59:37.859Z,71.00
2023-03-02T08:04:43.073Z,71.00
2023-03-02T08:09:46.482Z,71.00
2023-03-02T08:14:49.895Z,70.90
2023-03-02T08:19:54.702Z,70.90
2023-03-02T08:24:58.216Z,71.00
2023-03-02T08:30:01.626Z,70.90
2023-03-02T08:35:08.294Z,70.90
2023-03-02T08:40:13.585Z,70.90
2023-03-02T08:45:19.460Z,70.90
2023-03-02T08:50:24.200Z,71.00
2023-03-02T08:55:27.686Z,70.80
2023-03-02T09:00:31.843Z,70.90
2023-03-02T09:05:36.821Z,70.90
2023-03-02T09:10:40.522Z,70.90
2023-03-02T09:15:43.925Z,70.90
2023-03-02T09:20:51.991Z,70.80
2023-03-02T09:25:56.213Z,70.90
2023-03-02T09:31:03.678Z,70.90
2023-03-02T09:36:20.413Z,71.00
2023-03-02T09:42:43.906Z,70.90
2023-03-02T09:48:00.531Z,70.90
2023-03-02T09:53:32.414Z,70.90
2023-03-02T09:58:39.408Z,70.90
2023-03-02T10:03:51.774Z,70.90
2023-03-02T10:08:57.605Z,70.90
2023-03-02T10:14:12.123Z,70.90
2023-03-02T10:19:24.963Z,70.90
2023-03-02T10:24:41.143Z,70.90
2023-03-02T10:29:58.341Z,70.90
2023-03-02T10:35:11.852Z,70.90
2023-03-02T10:40:40.824Z,70.90
2023-03-02T10:45:44.832Z,70.90
2023-03-02T10:50:56.209Z,70.90
2023-03-02T10:56:00.997Z,70.90
2023-03-02T11:01:14.705Z,70.90
2023-03-02T11:06:22.475Z,70.90
2023-03-02T11:11:27.369Z,71.00
2023-03-02T11:16:33.862Z,70.90
2023-03-02T11:21:42.962Z,71.00
2023-03-02T11:26:53.663Z,71.10
2023-03-02T11:32:01.426Z,71.10
2023-03-02T11:37:21.288Z,71.00
2023-03-02T11:42:32.249Z,71.00
2023-03-02T11:47:37.433Z,71.10
2023-03-02T11:52:47.218Z,71.00
2023-03-02T11:57:56.585Z,71.00
2023-03-02T12:03:06.771Z,71.10
2023-03-02T12:08:38.280Z,71.10
2023-03-02T12:13:43.327Z,71.00
2023-03-02T12:18:49.584Z,71.00
2023-03-02T12:24:03.970Z,71.00
2023-03-02T12:29:25.509Z,71.20
2023-03-02T12:34:39.091Z,71.20
2023-03-02T12:40:25.577Z,71.20
2023-03-02T12:46:04.489Z,71.20
2023-03-02T12:51:21.449Z,71.20
2023-03-02T12:56:26.913Z,71.10
2023-03-02T13:01:34.614Z,71.30
2023-03-02T13:06:40.428Z,71.30
2023-03-02T13:11:44.499Z,71.20
2023-03-02T13:16:59.696Z,71.20
2023-03-02T13:22:03.457Z,71.20
2023-03-02T13:27:15.830Z,71.30
2023-03-02T13:32:25.958Z,71.30
2023-03-02T13:37:40.459Z,71.30
2023-03-02T13:42:43.930Z,71.20
2023-03-02T13:47:48.733Z,71.10
2023-03-02T13:52:54.266Z,71.10
2023-03-02T13:57:57.982Z,71.00
2023-03-02T14:03:03.257Z,71.00
2023-03-02T14:08:07.499Z,71.00
2023-03-02T14:13:16.199Z,70.90
2023-03-02T14:18:32.714Z,70.90
2023-03-02T14:23:36.134Z,70.80
2023-03-02T14:28:39.584Z,70.80
2023-03-02T14:33:44.351Z,70.70
2023-03-02T14:38:47.841Z,70.70
2023-03-02T14:43:52.161Z,70.70
2023-03-02T14:48:56.910Z,70.60
2023-03-02T14:54:04.303Z,70.70
2023-03-02T14:59:09.899Z,70.70
2023-03-02T15:04:14.643Z,70.60
2023-03-02T15:09:18.052Z,70.70
2023-03-02T15:14:21.479Z,70.70
2023-03-02T15:19:26.281Z,70.70
2023-03-02T15:24:32.068Z,70.70
2023-03-02T15:29:36.668Z,70.70
2023-03-02T15:34:41.631Z,70.80
2023-03-02T15:39:45.267Z,70.70
2023-03-02T15:44:48.913Z,70.80
2023-03-02T15:49:53.704Z,70.80
2023-03-02T15:54:57.158Z,70.70
2023-03-02T16:00:00.633Z,70.60
2023-03-02T16:05:06.683Z,70.80
2023-03-02T16:10:16.385Z,70.80
2023-03-02T16:15:19.987Z,71.00
2023-03-02T16:20:24.791Z,71.00
2023-03-02T16:25:28.909Z,71.10
2023-03-02T16:30:33.642Z,71.20
2023-03-02T16:35:39.514Z,71.20
2023-03-02T16:40:43.091Z,71.40
2023-03-02T16:45:46.858Z,72.40
2023-03-02T16:50:58.413Z,71.70
2023-03-02T16:56:01.981Z,71.60
2023-03-02T17:01:07.004Z,71.50
2023-03-02T17:06:15.471Z,71.60
2023-03-02T17:11:19.224Z,71.50
2023-03-02T17:16:22.614Z,71.50
2023-03-02T17:21:27.391Z,71.70
2023-03-02T17:26:30.896Z,71.70
2023-03-02T17:31:34.353Z,71.60
2023-03-02T17:36:39.732Z,71.60
2023-03-02T17:41:43.122Z,71.60
2023-03-02T17:46:47.017Z,71.60
2023-03-02T17:51:51.748Z,71.60
2023-03-02T17:56:55.152Z,71.60
2023-03-02T18:01:58.677Z,71.60
2023-03-02T18:07:03.409Z,71.60
2023-03-02T18:12:08.655Z,71.60
2023-03-02T18:17:12.430Z,71.60
2023-03-02T18:22:17.302Z,71.70
2023-03-02T18:27:21.209Z,71.70
2023-03-02T18:32:24.683Z,71.60
2023-03-02T18:37:30.611Z,71.60
2023-03-02T18:42:34.844Z,71.60
2023-03-02T18:47:38.272Z,71.70
2023-03-02T18:52:43.187Z,71.70
2023-03-02T18:57:46.698Z,71.70
2023-03-02T19:02:50.499Z,71.70
2023-03-02T19:07:57.456Z,71.70
2023-03-02T19:13:00.839Z,71.70
2023-03-02T19:18:04.300Z,71.80
2023-03-02T19:23:09.130Z,71.70
2023-03-02T19:28:13.309Z,71.70
2023-03-02T19:33:17.085Z,71.70
2023-03-02T19:38:22.681Z,71.70
2023-03-02T19:43:28.097Z,71.80
2023-03-02T19:48:31.744Z,71.80
2023-03-02T19:53:40.213Z,71.70
2023-03-02T19:58:49.603Z,71.70
2023-03-02T20:03:54.310Z,71.80
2023-03-02T20:09:01.365Z,71.90
2023-03-02T20:14:05.033Z,71.90
2023-03-02T20:19:08.533Z,71.90
2023-03-02T20:24:14.556Z,71.90
2023-03-02T20:29:18.739Z,71.90
2023-03-02T20:34:22.734Z,72.00
2023-03-02T20:39:32.434Z,71.90
2023-03-02T20:44:36.814Z,71.90
2023-03-02T20:49:41.208Z,71.80
2023-03-02T20:54:46.066Z,71.90
2023-03-02T20:59:50.102Z,71.90
2023-03-02T21:04:54.007Z,72.60
2023-03-02T21:09:58.901Z,71.90
2023-03-02T21:15:03.207Z,72.10
2023-03-02T21:20:08.631Z,71.90
2023-03-02T21:25:13.928Z,72.00
2023-03-02T21:30:21.524Z,72.00
2023-03-02T21:35:25.092Z,72.00
2023-03-02T21:40:37.671Z,72.10
2023-03-02T21:45:42.290Z,72.10
2023-03-02T21:50:46.163Z,72.10
2023-03-02T21:55:53.582Z,72.10
2023-03-02T22:00:57.068Z,72.00
2023-03-02T22:06:00.515Z,72.10
2023-03-02T22:11:05.836Z,72.10
2023-03-02T22:16:15.898Z,72.10
2023-03-02T22:21:31.664Z,72.10
2023-03-02T22:26:40.775Z,72.10
2023-03-02T22:31:48.804Z,72.10
2023-03-02T22:36:52.546Z,72.10
2023-03-02T22:42:06.274Z,72.10
2023-03-02T22:47:17.555Z,72.00
2023-03-02T22:52:27.614Z,72.10
2023-03-02T22:57:35.395Z,72.10
2023-03-02T23:02:45.348Z,72.10
2023-03-02T23:07:48.773Z,72.00
2023-03-02T23:12:53.551Z,72.00
2023-03-02T23:17:59.974Z,72.10
2023-03-02T23:23:03.448Z,72.10
2023-03-02T23:28:08.449Z,72.20
2023-03-02T23:33:11.894Z,72.10
2023-03-02T23:38:15.316Z,72.20
2023-03-02T23:43:20.577Z,72.10
2023-03-02T23:48:24.413Z,72.10
2023-03-02T23:53:28.173Z,72.10
2023-03-02T23:58:33.395Z,72.10
